createdAt,value
2018-05-21T00:00:45.809Z,16.25
2018-05-21T00:03:13.426Z,16.12
2018-05-21T00:05:41.073Z,16.02
2018-05-21T00:08:08.716Z,16.06
2018-05-21T00:10:36.336Z,15.96
2018-05-21T00:13:03.985Z,15.93
2018-05-21T00:15:31.596Z,16.00
2018-05-21T00:17:59.227Z,15.87
2018-05-21T00:20:26.824Z,15.92
2018-05-21T00:22:54.584Z,15.89
2018-05-21T00:25:22.217Z,15.93
2018-05-21T00:27:49.881Z,15.97
2018-05-21T00:30:17.487Z,15.92
2018-05-21T00:32:45.166Z,15.84
2018-05-21T00:35:12.804Z,15.76
2018-05-21T00:37:40.455Z,15.72
2018-05-21T00:40:08.054Z,15.79
2018-05-21T00:42:35.709Z,15.72
2018-05-21T00:45:03.317Z,15.63
2018-05-21T00:47:31.010Z,15.65
2018-05-21T00:49:58.615Z,15.78
2018-05-21T00:52:26.210Z,15.67
2018-05-21T00:55:05.484Z,15.69
2018-05-21T00:57:33.126Z,15.64
2018-05-21T01:00:00.748Z,15.41
2018-05-21T01:02:28.388Z,15.40
2018-05-21T01:04:56.044Z,15.40
2018-05-21T01:07:23.748Z,15.41
2018-05-21T01:09:51.586Z,15.44
2018-05-21T01:12:19.188Z,15.38
2018-05-21T01:14:46.890Z,15.34
2018-05-21T01:17:14.521Z,15.34
2018-05-21T01:19:42.230Z,15.31
2018-05-21T01:22:09.849Z,15.39
2018-05-21T01:24:37.612Z,15.40
2018-05-21T01:27:05.229Z,15.52
2018-05-21T01:29:32.885Z,15.55
2018-05-21T01:32:00.526Z,15.38
2018-05-21T01:34:28.210Z,15.38
2018-05-21T01:36:55.813Z,15.45
2018-05-21T01:39:23.417Z,15.32
2018-05-21T01:41:51.056Z,15.37
2018-05-21T01:44:18.667Z,15.38
2018-05-21T01:46:46.365Z,15.26
2018-05-21T01:49:13.966Z,15.34
2018-05-21T01:51:41.601Z,15.20
2018-05-21T01:54:09.245Z,15.28
2018-05-21T01:56:36.875Z,15.27
2018-05-21T01:59:04.489Z,15.27
2018-05-21T02:01:32.129Z,15.26
2018-05-21T02:03:59.728Z,15.09
2018-05-21T02:06:27.366Z,15.07
2018-05-21T02:08:54.956Z,15.07
2018-05-21T02:11:22.708Z,15.25
2018-05-21T02:13:50.301Z,15.29
2018-05-21T02:16:17.941Z,15.37
2018-05-21T02:18:45.541Z,15.26
2018-05-21T02:21:13.212Z,15.17
2018-05-21T02:23:40.858Z,15.03
2018-05-21T02:26:08.440Z,14.97
2018-05-21T02:28:36.145Z,14.97
2018-05-21T02:31:03.795Z,15.12
2018-05-21T02:33:31.461Z,15.12
2018-05-21T02:35:59.079Z,15.20
2018-05-21T02:38:26.713Z,15.20
2018-05-21T02:40:54.319Z,15.01
2018-05-21T02:43:21.968Z,14.98
2018-05-21T02:45:49.568Z,14.89
2018-05-21T02:48:17.206Z,14.94
2018-05-21T02:50:44.889Z,14.95
2018-05-21T02:53:12.526Z,14.92
2018-05-21T02:55:40.123Z,15.01
2018-05-21T02:58:07.754Z,15.06
2018-05-21T03:00:35.387Z,15.05
2018-05-21T03:03:02.978Z,15.05
2018-05-21T03:05:30.830Z,15.06
2018-05-21T03:07:59.154Z,14.99
2018-05-21T03:10:26.788Z,14.99
2018-05-21T03:12:54.395Z,14.92
2018-05-21T03:15:22.149Z,14.96
2018-05-21T03:17:49.741Z,14.88
2018-05-21T03:20:17.372Z,14.71
2018-05-21T03:22:44.985Z,14.65
2018-05-21T03:25:12.648Z,14.62
2018-05-21T03:27:40.257Z,14.54
2018-05-21T03:30:07.954Z,14.61
2018-05-21T03:32:35.567Z,14.58
2018-05-21T03:35:03.249Z,14.61
2018-05-21T03:37:30.867Z,14.60
2018-05-21T03:39:58.545Z,14.69
2018-05-21T03:42:26.136Z,14.75
2018-05-21T03:44:53.727Z,14.79
2018-05-21T03:47:21.352Z,14.88
2018-05-21T03:49:48.953Z,14.89
2018-05-21T03:52:16.609Z,14.80
2018-05-21T03:54:44.197Z,14.77
2018-05-21T03:57:11.828Z,14.81
2018-05-21T03:59:50.997Z,14.89
2018-05-21T04:02:31.976Z,14.92
2018-05-21T04:04:59.581Z,14.94
2018-05-21T04:07:27.377Z,15.01
2018-05-21T04:09:54.989Z,15.08
2018-05-21T04:12:22.619Z,15.09
2018-05-21T04:14:50.277Z,15.12
2018-05-21T04:17:17.903Z,15.18
2018-05-21T04:19:45.498Z,15.25
2018-05-21T04:22:13.141Z,15.32
2018-05-21T04:24:40.826Z,15.44
2018-05-21T04:27:08.451Z,15.51
2018-05-21T04:29:36.055Z,15.53
2018-05-21T04:32:03.683Z,15.57
2018-05-21T04:34:31.285Z,15.61
2018-05-21T04:36:58.940Z,15.69
2018-05-21T04:39:26.526Z,15.77
2018-05-21T04:41:54.134Z,15.77
2018-05-21T04:44:21.771Z,15.87
2018-05-21T04:46:49.376Z,15.95
2018-05-21T04:49:17.080Z,15.94
2018-05-21T04:51:44.773Z,16.01
2018-05-21T04:54:12.635Z,15.99
2018-05-21T04:56:40.238Z,15.97
2018-05-21T04:59:07.884Z,15.89
2018-05-21T05:01:35.481Z,15.98
2018-05-21T05:04:03.103Z,15.97
2018-05-21T05:06:30.733Z,16.06
2018-05-21T05:08:59.081Z,16.21
2018-05-21T05:11:26.741Z,16.23
2018-05-21T05:13:55.077Z,16.27
2018-05-21T05:16:22.682Z,16.24
2018-05-21T05:18:50.306Z,16.03
2018-05-21T05:21:17.949Z,16.09
2018-05-21T05:23:45.604Z,16.30
2018-05-21T05:26:13.236Z,16.34
2018-05-21T05:28:40.890Z,16.32
2018-05-21T05:31:08.533Z,16.22
2018-05-21T05:33:36.139Z,16.28
2018-05-21T05:36:03.922Z,16.44
2018-05-21T05:38:31.430Z,16.41
2018-05-21T05:40:59.078Z,16.56
2018-05-21T05:43:26.669Z,16.52
2018-05-21T05:45:54.317Z,16.53
2018-05-21T05:48:21.925Z,16.68
2018-05-21T05:50:49.657Z,16.70
2018-05-21T05:53:17.305Z,16.80
2018-05-21T05:55:45.009Z,16.88
2018-05-21T05:58:12.617Z,16.98
2018-05-21T06:00:40.259Z,17.13
2018-05-21T06:03:07.894Z,17.22
2018-05-21T06:05:35.559Z,17.17
2018-05-21T06:08:03.160Z,17.16
2018-05-21T06:10:30.801Z,17.21
2018-05-21T06:12:58.406Z,17.29
2018-05-21T06:15:26.297Z,17.30
2018-05-21T06:17:53.929Z,17.34
2018-05-21T06:20:21.557Z,17.42
2018-05-21T06:22:49.203Z,17.50
2018-05-21T06:25:16.894Z,17.60
2018-05-21T06:27:44.520Z,17.65
2018-05-21T06:30:12.150Z,17.83
2018-05-21T06:32:39.802Z,17.97
2018-05-21T06:35:07.409Z,18.10
2018-05-21T06:37:35.037Z,18.19
2018-05-21T06:40:02.646Z,18.31
2018-05-21T06:42:30.273Z,18.42
2018-05-21T06:44:57.868Z,18.50
2018-05-21T06:47:25.521Z,18.60
2018-05-21T06:49:53.115Z,18.68
2018-05-21T06:52:20.877Z,18.83
2018-05-21T06:54:48.468Z,18.92
2018-05-21T06:57:16.125Z,19.04
2018-05-21T06:59:43.826Z,19.16
2018-05-21T07:02:11.429Z,19.23
2018-05-21T07:04:39.038Z,19.24
2018-05-21T07:07:06.665Z,19.32
2018-05-21T07:09:34.290Z,19.37
2018-05-21T07:12:01.933Z,19.42
2018-05-21T07:14:29.582Z,19.49
2018-05-21T07:16:57.177Z,19.53
2018-05-21T07:19:24.806Z,19.54
2018-05-21T07:21:52.413Z,19.62
2018-05-21T07:24:20.124Z,19.67
2018-05-21T07:26:47.664Z,19.84
2018-05-21T07:29:15.296Z,19.92
2018-05-21T07:31:42.908Z,20.11
2018-05-21T07:34:10.553Z,20.23
2018-05-21T07:36:38.197Z,20.20
2018-05-21T07:39:06.788Z,20.23
2018-05-21T07:41:34.381Z,20.29
2018-05-21T07:44:02.073Z,20.28
2018-05-21T07:46:29.690Z,20.30
2018-05-21T07:48:57.536Z,20.39
2018-05-21T07:51:25.195Z,20.50
2018-05-21T07:53:52.785Z,20.66
2018-05-21T07:56:20.381Z,20.78
2018-05-21T07:58:48.032Z,20.90
2018-05-21T08:01:15.628Z,21.04
2018-05-21T08:03:43.229Z,21.21
2018-05-21T08:06:10.856Z,21.15
2018-05-21T08:08:38.554Z,21.29
2018-05-21T08:11:06.219Z,21.28
2018-05-21T08:13:33.878Z,21.38
2018-05-21T08:16:01.540Z,21.52
2018-05-21T08:18:29.148Z,21.52
2018-05-21T08:20:56.802Z,21.64
2018-05-21T08:23:24.421Z,21.71
2018-05-21T08:25:52.100Z,21.78
2018-05-21T08:28:19.708Z,21.80
2018-05-21T08:30:47.453Z,21.83
2018-05-21T08:33:15.111Z,21.81
2018-05-21T08:35:42.777Z,21.80
2018-05-21T08:38:10.397Z,21.90
2018-05-21T08:40:38.057Z,22.09
2018-05-21T08:43:05.684Z,22.23
2018-05-21T08:45:33.365Z,22.34
2018-05-21T08:48:01.061Z,22.28
2018-05-21T08:50:28.694Z,22.23
2018-05-21T08:52:56.337Z,22.22
2018-05-21T08:55:23.948Z,22.17
2018-05-21T08:57:51.593Z,22.25
2018-05-21T09:00:19.331Z,22.43
2018-05-21T09:02:46.978Z,22.58
2018-05-21T09:05:14.574Z,22.70
2018-05-21T09:07:42.221Z,23.03
2018-05-21T09:10:09.885Z,23.08
2018-05-21T09:12:37.455Z,23.23
2018-05-21T09:15:05.045Z,23.54
2018-05-21T09:17:32.682Z,23.61
2018-05-21T09:20:00.350Z,23.49
2018-05-21T09:22:27.998Z,23.23
2018-05-21T09:24:55.594Z,23.23
2018-05-21T09:27:23.311Z,23.12
2018-05-21T09:29:50.909Z,23.49
2018-05-21T09:32:18.553Z,23.79
2018-05-21T09:34:46.153Z,23.74
2018-05-21T09:37:13.777Z,23.69
2018-05-21T09:39:41.456Z,23.67
2018-05-21T09:42:09.123Z,23.68
2018-05-21T09:44:36.773Z,23.65
2018-05-21T09:47:04.398Z,23.86
2018-05-21T09:49:32.026Z,23.90
2018-05-21T09:51:59.627Z,24.19
2018-05-21T09:54:27.275Z,23.84
2018-05-21T09:56:54.904Z,23.78
2018-05-21T09:59:22.537Z,24.07
2018-05-21T10:01:50.126Z,23.97
2018-05-21T10:04:17.757Z,24.07
2018-05-21T10:06:45.468Z,23.87
2018-05-21T10:09:13.181Z,23.74
2018-05-21T10:11:40.822Z,23.80
2018-05-21T10:14:08.475Z,24.03
2018-05-21T10:16:36.354Z,23.86
2018-05-21T10:19:03.948Z,23.64
2018-05-21T10:21:31.605Z,23.66
2018-05-21T10:23:59.521Z,23.56
2018-05-21T10:26:27.159Z,23.80
2018-05-21T10:28:54.806Z,23.95
2018-05-21T10:31:22.540Z,24.03
2018-05-21T10:33:50.162Z,24.29
2018-05-21T10:36:17.805Z,24.74
2018-05-21T10:38:45.425Z,24.80
2018-05-21T10:41:13.105Z,24.47
2018-05-21T10:43:40.741Z,24.76
2018-05-21T10:46:08.387Z,24.76
2018-05-21T10:48:36.030Z,24.94
2018-05-21T10:51:03.717Z,24.98
2018-05-21T10:53:31.453Z,25.25
2018-05-21T10:55:59.374Z,25.61
2018-05-21T10:58:26.994Z,25.82
2018-05-21T11:00:55.338Z,25.46
2018-05-21T11:03:22.989Z,25.62
2018-05-21T11:05:51.605Z,25.50
2018-05-21T11:08:19.245Z,26.02
2018-05-21T11:10:46.847Z,25.82
2018-05-21T11:13:14.516Z,25.90
2018-05-21T11:15:42.764Z,25.77
2018-05-21T11:18:10.954Z,25.74
2018-05-21T11:20:38.620Z,25.88
2018-05-21T11:23:06.352Z,25.53
2018-05-21T11:25:33.953Z,25.28
2018-05-21T11:28:01.597Z,25.42
2018-05-21T11:30:29.337Z,25.78
2018-05-21T11:32:57.026Z,26.27
2018-05-21T11:35:24.739Z,26.37
2018-05-21T11:37:52.389Z,26.33
2018-05-21T11:40:20.013Z,26.90
2018-05-21T11:42:47.677Z,27.08
2018-05-21T11:45:15.344Z,27.32
2018-05-21T11:47:43.085Z,26.71
2018-05-21T11:50:10.734Z,27.22
2018-05-21T11:52:38.405Z,27.07
2018-05-21T11:55:07.437Z,26.71
2018-05-21T11:57:35.082Z,26.69
2018-05-21T12:00:02.841Z,26.62
2018-05-21T12:02:30.513Z,26.43
2018-05-21T12:04:58.146Z,26.72
2018-05-21T12:07:25.854Z,27.00
2018-05-21T12:09:53.502Z,27.07
2018-05-21T12:12:22.421Z,27.70
2018-05-21T12:14:50.071Z,27.60
2018-05-21T12:17:18.290Z,27.51
2018-05-21T12:19:46.655Z,27.63
2018-05-21T12:22:14.319Z,28.26
2018-05-21T12:24:41.984Z,28.01
2018-05-21T12:27:09.657Z,27.92
2018-05-21T12:29:38.444Z,28.13
2018-05-21T12:32:07.751Z,28.15
2018-05-21T12:34:35.377Z,28.40
2018-05-21T12:37:03.358Z,28.57
2018-05-21T12:39:31.058Z,28.48
2018-05-21T12:41:58.680Z,28.24
2018-05-21T12:44:26.315Z,28.72
2018-05-21T12:46:54.103Z,28.43
2018-05-21T12:49:21.802Z,28.40
2018-05-21T12:51:49.460Z,28.18
2018-05-21T12:54:17.541Z,28.18
2018-05-21T12:56:45.240Z,28.02
2018-05-21T12:59:12.869Z,27.58
2018-05-21T13:01:40.599Z,27.39
2018-05-21T13:04:08.200Z,27.53
2018-05-21T13:06:35.845Z,27.87
2018-05-21T13:09:03.487Z,27.90
2018-05-21T13:11:31.137Z,28.11
2018-05-21T13:13:58.741Z,27.86
2018-05-21T13:16:26.399Z,27.36
2018-05-21T13:18:54.015Z,27.71
2018-05-21T13:21:21.731Z,27.54
2018-05-21T13:23:49.506Z,27.45
2018-05-21T13:26:17.111Z,27.71
2018-05-21T13:28:45.252Z,28.10
2018-05-21T13:31:13.504Z,28.20
2018-05-21T13:33:41.708Z,28.03
2018-05-21T13:36:10.158Z,28.43
2018-05-21T13:38:37.800Z,28.49
2018-05-21T13:41:05.951Z,28.14
2018-05-21T13:43:33.599Z,27.87
2018-05-21T13:46:01.933Z,27.73
2018-05-21T13:48:29.637Z,27.17
2018-05-21T13:50:57.256Z,27.43
2018-05-21T13:53:25.250Z,27.08
2018-05-21T13:55:52.908Z,26.93
2018-05-21T13:58:20.597Z,27.18
2018-05-21T14:00:48.289Z,27.32
2018-05-21T14:03:16.006Z,27.30
2018-05-21T14:05:44.493Z,27.42
2018-05-21T14:08:12.986Z,27.25
2018-05-21T14:10:40.649Z,26.86
2018-05-21T14:13:08.338Z,27.36
2018-05-21T14:15:35.948Z,27.28
2018-05-21T14:18:03.605Z,27.61
2018-05-21T14:20:31.319Z,27.49
2018-05-21T14:22:59.761Z,27.42
2018-05-21T14:25:28.296Z,27.34
2018-05-21T14:27:56.734Z,27.41
2018-05-21T14:30:25.386Z,27.04
2018-05-21T14:32:53.037Z,26.71
2018-05-21T14:35:20.702Z,26.88
2018-05-21T14:37:49.272Z,26.95
2018-05-21T14:40:16.956Z,26.77
2018-05-21T14:42:44.571Z,26.82
2018-05-21T14:45:12.271Z,26.71
2018-05-21T14:47:40.448Z,27.15
2018-05-21T14:50:08.330Z,27.12
2018-05-21T14:52:35.935Z,27.03
2018-05-21T14:55:03.615Z,26.94
2018-05-21T14:57:31.209Z,27.15
2018-05-21T14:59:58.947Z,27.24
2018-05-21T15:02:26.621Z,27.44
2018-05-21T15:04:54.334Z,27.20
2018-05-21T15:07:21.996Z,27.39
2018-05-21T15:09:49.629Z,27.53
2018-05-21T15:12:17.340Z,26.98
2018-05-21T15:14:44.959Z,26.60
2018-05-21T15:17:12.601Z,26.86
2018-05-21T15:19:41.061Z,27.10
2018-05-21T15:22:08.699Z,27.18
2018-05-21T15:24:36.447Z,27.40
2018-05-21T15:27:04.134Z,27.56
2018-05-21T15:29:31.739Z,27.76
2018-05-21T15:31:59.491Z,27.28
2018-05-21T15:34:27.238Z,27.16
2018-05-21T15:36:54.849Z,27.18
2018-05-21T15:39:22.530Z,27.37
2018-05-21T15:41:50.137Z,27.26
2018-05-21T15:44:17.790Z,27.18
2018-05-21T15:46:45.398Z,26.93
2018-05-21T15:49:13.231Z,27.38
2018-05-21T15:51:40.857Z,27.80
2018-05-21T15:54:08.507Z,28.35
2018-05-21T15:56:36.136Z,28.39
2018-05-21T15:59:03.784Z,28.50
2018-05-21T16:01:31.454Z,28.24
2018-05-21T16:03:59.090Z,27.95
2018-05-21T16:06:26.727Z,27.54
2018-05-21T16:08:54.376Z,27.41
2018-05-21T16:11:21.987Z,27.38
2018-05-21T16:13:49.669Z,27.41
2018-05-21T16:16:17.296Z,27.27
2018-05-21T16:18:44.945Z,27.52
2018-05-21T16:21:12.590Z,27.74
2018-05-21T16:23:40.197Z,27.43
2018-05-21T16:26:07.837Z,27.17
2018-05-21T16:28:35.858Z,27.36
2018-05-21T16:31:03.624Z,27.19
2018-05-21T16:33:31.254Z,26.86
2018-05-21T16:35:58.915Z,26.95
2018-05-21T16:38:26.741Z,27.00
2018-05-21T16:40:54.413Z,26.95
2018-05-21T16:43:22.029Z,27.29
2018-05-21T16:45:49.688Z,27.42
2018-05-21T16:48:17.399Z,27.41
2018-05-21T16:50:45.394Z,27.30
2018-05-21T16:53:12.988Z,27.16
2018-05-21T16:55:40.607Z,27.45
2018-05-21T16:58:08.265Z,27.60
2018-05-21T17:00:35.861Z,27.49
2018-05-21T17:03:03.533Z,27.71
2018-05-21T17:05:31.191Z,28.18
2018-05-21T17:07:58.889Z,27.91
2018-05-21T17:10:26.739Z,27.54
2018-05-21T17:12:54.431Z,27.29
2018-05-21T17:15:22.045Z,27.25
2018-05-21T17:17:49.701Z,27.67
2018-05-21T17:20:17.379Z,27.98
2018-05-21T17:22:45.068Z,28.28
2018-05-21T17:25:12.676Z,28.59
2018-05-21T17:27:40.350Z,29.06
2018-05-21T17:30:07.949Z,28.69
2018-05-21T17:32:35.588Z,28.28
2018-05-21T17:35:03.225Z,28.18
2018-05-21T17:37:30.892Z,27.94
2018-05-21T17:39:58.532Z,27.92
2018-05-21T17:42:26.266Z,28.00
2018-05-21T17:44:53.987Z,27.64
2018-05-21T17:47:21.681Z,27.58
2018-05-21T17:49:49.341Z,27.63
2018-05-21T17:52:16.953Z,27.34
2018-05-21T17:54:44.634Z,27.21
2018-05-21T17:57:12.303Z,26.81
2018-05-21T17:59:39.917Z,26.75
2018-05-21T18:02:07.570Z,26.51
2018-05-21T18:04:35.250Z,26.30
2018-05-21T18:07:03.049Z,26.08
2018-05-21T18:09:30.699Z,26.01
2018-05-21T18:11:58.311Z,25.93
2018-05-21T18:14:25.939Z,25.81
2018-05-21T18:16:53.621Z,25.87
2018-05-21T18:19:21.264Z,25.75
2018-05-21T18:21:48.856Z,25.72
2018-05-21T18:24:16.484Z,25.69
2018-05-21T18:26:44.124Z,25.67
2018-05-21T18:29:11.794Z,25.60
2018-05-21T18:31:39.421Z,25.56
2018-05-21T18:34:07.012Z,25.53
2018-05-21T18:36:34.695Z,25.50
2018-05-21T18:39:02.346Z,25.48
2018-05-21T18:41:29.965Z,25.53
2018-05-21T18:43:57.654Z,25.55
2018-05-21T18:46:25.295Z,25.53
2018-05-21T18:48:52.909Z,25.50
2018-05-21T18:51:20.597Z,25.38
2018-05-21T18:53:48.283Z,25.38
2018-05-21T18:56:15.872Z,25.34
2018-05-21T18:58:43.480Z,25.33
2018-05-21T19:01:11.126Z,25.29
2018-05-21T19:03:38.785Z,25.24
2018-05-21T19:06:06.466Z,25.14
2018-05-21T19:08:34.113Z,25.12
2018-05-21T19:11:01.741Z,25.03
2018-05-21T19:13:29.349Z,24.92
2018-05-21T19:15:57.079Z,24.84
2018-05-21T19:18:24.698Z,24.74
2018-05-21T19:20:52.315Z,24.75
2018-05-21T19:23:19.983Z,24.83
2018-05-21T19:25:47.589Z,24.86
2018-05-21T19:28:15.324Z,24.81
2018-05-21T19:30:42.954Z,24.59
2018-05-21T19:33:10.649Z,24.48
2018-05-21T19:35:38.260Z,24.45
2018-05-21T19:38:05.893Z,24.42
2018-05-21T19:40:33.671Z,24.43
2018-05-21T19:43:01.338Z,24.48
2018-05-21T19:45:28.989Z,24.39
2018-05-21T19:47:56.660Z,24.37
2018-05-21T19:50:24.297Z,24.45
2018-05-21T19:52:51.948Z,24.43
2018-05-21T19:55:19.556Z,24.42
2018-05-21T19:57:47.221Z,24.43
2018-05-21T20:00:14.818Z,24.43
2018-05-21T20:02:42.436Z,24.39
2018-05-21T20:05:10.088Z,24.38
2018-05-21T20:07:37.676Z,24.28
2018-05-21T20:10:05.293Z,24.23
2018-05-21T20:12:33.093Z,23.98
2018-05-21T20:15:00.735Z,23.77
2018-05-21T20:17:28.339Z,23.37
2018-05-21T20:19:56.008Z,23.20
2018-05-21T20:22:23.626Z,22.99
2018-05-21T20:24:51.418Z,22.87
2018-05-21T20:27:19.101Z,22.76
2018-05-21T20:29:46.746Z,22.75
2018-05-21T20:32:14.403Z,22.65
2018-05-21T20:34:42.042Z,22.55
2018-05-21T20:37:09.722Z,22.60
2018-05-21T20:39:37.430Z,22.52
2018-05-21T20:42:05.040Z,22.41
2018-05-21T20:44:32.827Z,22.38
2018-05-21T20:47:00.516Z,22.36
2018-05-21T20:49:28.518Z,22.40
2018-05-21T20:51:56.161Z,22.35
2018-05-21T20:54:23.916Z,22.37
2018-05-21T20:56:51.620Z,22.19
2018-05-21T20:59:19.245Z,22.25
2018-05-21T21:01:46.951Z,22.30
2018-05-21T21:04:14.562Z,22.32
2018-05-21T21:06:42.253Z,22.17
2018-05-21T21:09:09.859Z,22.16
2018-05-21T21:11:37.517Z,22.23
2018-05-21T21:14:05.129Z,22.20
2018-05-21T21:16:32.793Z,22.14
2018-05-21T21:19:00.655Z,22.13
2018-05-21T21:21:29.213Z,21.92
2018-05-21T21:23:56.808Z,21.95
2018-05-21T21:26:24.492Z,21.85
2018-05-21T21:28:52.093Z,21.85
2018-05-21T21:31:19.703Z,21.89
2018-05-21T21:33:47.337Z,21.86
2018-05-21T21:36:14.933Z,21.83
2018-05-21T21:38:42.655Z,21.82
2018-05-21T21:41:10.257Z,21.84
2018-05-21T21:43:37.909Z,21.86
2018-05-21T21:46:06.021Z,21.74
2018-05-21T21:48:33.661Z,21.49
2018-05-21T21:51:01.389Z,21.33
2018-05-21T21:53:29.030Z,21.16
2018-05-21T21:55:56.632Z,21.10
2018-05-21T21:58:24.269Z,21.14
2018-05-21T22:00:51.889Z,21.14
2018-05-21T22:03:19.529Z,20.99
2018-05-21T22:05:47.118Z,20.96
2018-05-21T22:08:14.720Z,21.01
2018-05-21T22:10:42.353Z,20.91
2018-05-21T22:13:09.972Z,20.77
2018-05-21T22:15:37.624Z,20.78
2018-05-21T22:18:05.337Z,20.74
2018-05-21T22:20:33.108Z,20.76
2018-05-21T22:23:00.721Z,20.76
2018-05-21T22:25:28.476Z,20.79
2018-05-21T22:27:56.195Z,20.87
2018-05-21T22:30:23.839Z,20.92
2018-05-21T22:32:51.476Z,20.96
2018-05-21T22:35:19.197Z,20.96
2018-05-21T22:37:46.860Z,21.08
2018-05-21T22:40:14.644Z,21.10
2018-05-21T22:42:42.549Z,21.07
2018-05-21T22:45:10.209Z,21.07
2018-05-21T22:47:37.809Z,21.09
2018-05-21T22:50:05.467Z,21.17
2018-05-21T22:52:33.065Z,21.16
2018-05-21T22:55:00.665Z,21.19
2018-05-21T22:57:28.923Z,21.20
2018-05-21T22:59:56.534Z,21.24
2018-05-21T23:02:24.181Z,21.26
2018-05-21T23:04:51.821Z,21.25
2018-05-21T23:07:19.573Z,21.16
2018-05-21T23:09:47.985Z,21.13
2018-05-21T23:12:15.613Z,21.17
2018-05-21T23:14:43.301Z,21.20
2018-05-21T23:17:10.966Z,21.15
2018-05-21T23:19:38.584Z,21.14
2018-05-21T23:22:06.238Z,21.18
2018-05-21T23:24:33.861Z,21.20
2018-05-21T23:27:01.591Z,21.17
2018-05-21T23:29:30.021Z,20.94
2018-05-21T23:31:57.704Z,21.02
2018-05-21T23:34:25.399Z,20.96
2018-05-21T23:36:53.018Z,20.80
2018-05-21T23:39:20.645Z,20.73
2018-05-21T23:41:48.249Z,20.88
2018-05-21T23:44:15.893Z,20.98
2018-05-21T23:46:43.523Z,21.07
2018-05-21T23:49:11.392Z,21.06
2018-05-21T23:51:39.125Z,20.96
2018-05-21T23:54:06.759Z,20.93
2018-05-21T23:56:34.405Z,20.81
2018-05-21T23:59:02.148Z,20.74
